Time;durP1;ratioP1;P1;durP2;ratioP2;P2;SDS_P1;SDS_P2;PMS_P1;PMS_P2;Temp;Humidity;BMP_temperature;BMP_pressure;BME280_temperature;BME280_humidity;BME280_pressure;Samples;Min_cycle;Max_cycle;Signal;HPM_P1;HPM_P2
2021/11/28 00:00:45;;;;;;;;;;;;;;;15.39;64.72;99571.84;5077300;28;1060;-72
2021/11/28 00:03:13;;;;;;;;;;;;;;;15.40;64.58;99573.50;5075737;28;1339;-72
2021/11/28 00:05:41;;;;;;;;;;;;;;;15.39;64.34;99572.69;5076969;28;1064;-63
2021/11/28 00:08:24;;;;;;;;;;;;;;;15.38;64.88;99568.34;5077084;28;1913;-71
2021/11/28 00:16:15;;;;;;;;;;;;;;;15.39;64.24;99562.03;5075829;28;1349;-71
2021/11/28 00:18:42;;;;;;;;;;;;;;;15.37;64.27;99560.50;5077070;28;1052;-63
2021/11/28 00:21:10;;;;;;;;;;;;;;;15.39;63.99;99569.19;5077016;28;1037;-63
2021/11/28 00:23:37;;;;;;;;;;;;;;;15.36;64.99;99562.31;5076593;28;1079;-63
2021/11/28 00:26:04;;;;;;;;;;;;;;;15.38;65.17;99556.84;5076916;28;1016;-63
2021/11/28 00:28:30;;;;;;;;;;;;;;;15.35;64.69;99568.63;5076451;28;1901;-72
2021/11/28 00:30:57;;;;;;;;;;;;;;;15.36;64.31;99545.47;5076728;28;1043;-63
2021/11/28 00:33:24;;;;;;;;;;;;;;;15.37;64.01;99545.34;5076837;28;1037;-63
2021/11/28 00:35:50;;;;;;;;;;;;;;;15.37;63.82;99540.03;5076661;28;1055;-72
2021/11/28 00:38:18;;;;;;;;;;;;;;;15.35;64.65;99549.97;5076623;28;1140;-71
2021/11/28 00:40:44;;;;;;;;;;;;;;;15.35;64.04;99549.97;5076576;28;970;-63
2021/11/28 00:43:11;;;;;;;;;;;;;;;15.36;64.07;99541.03;5076633;28;967;-71
2021/11/28 00:45:37;;;;;;;;;;;;;;;15.34;64.63;99550.97;5076422;28;973;-71
2021/11/28 00:48:04;;;;;;;;;;;;;;;15.35;64.02;99547.31;5076308;28;1902;-71
2021/11/28 00:50:42;;;;;;;;;;;;;;;15.38;63.87;99555.03;5076423;28;1026;-71
2021/11/28 00:53:09;;;;;;;;;;;;;;;15.34;64.05;99550.97;5076112;28;981;-71
2021/11/28 00:55:37;;;;;;;;;;;;;;;15.32;64.70;99558.28;5075893;28;1016;-66
2021/11/28 00:58:03;;;;;;;;;;;;;;;15.35;63.64;99546.47;5075890;28;1091;-72
2021/11/28 01:00:30;;;;;;;;;;;;;;;15.34;63.75;99550.97;5075841;28;1040;-63
2021/11/28 01:02:56;;;;;;;;;;;;;;;15.31;64.02;99549.41;5075623;28;1431;-71
2021/11/28 01:05:23;;;;;;;;;;;;;;;15.33;64.42;99546.63;5076115;28;1048;-63
2021/11/28 01:07:49;;;;;;;;;;;;;;;15.31;64.02;99551.25;5075607;28;1905;-71
2021/11/28 01:10:16;;;;;;;;;;;;;;;15.33;64.83;99551.94;5075671;28;1031;-71
2021/11/28 01:12:44;;;;;;;;;;;;;;;15.31;64.38;99545.91;5075962;28;1044;-63
2021/11/28 01:15:12;;;;;;;;;;;;;;;15.32;63.67;99547.63;5075322;28;1008;-63
2021/11/28 01:17:38;;;;;;;;;;;;;;;15.32;65.17;99548.44;5075818;28;1039;-71
2021/11/28 01:20:06;;;;;;;;;;;;;;;15.32;64.09;99534.28;5075792;28;979;-63
2021/11/28 01:22:32;;;;;;;;;;;;;;;15.29;64.15;99524.75;5075738;28;964;-71
2021/11/28 01:24:58;;;;;;;;;;;;;;;15.28;64.34;99531.06;5075757;28;1014;-63
2021/11/28 01:27:25;;;;;;;;;;;;;;;15.28;64.45;99527.56;5075646;28;1902;-63
2021/11/28 01:29:53;;;;;;;;;;;;;;;15.27;64.09;99531.19;5075349;28;1117;-71
2021/11/28 01:32:20;;;;;;;;;;;;;;;15.29;63.50;99526.56;5075502;28;1057;-71
2021/11/28 01:34:46;;;;;;;;;;;;;;;15.29;63.87;99515.91;5075483;28;981;-63
2021/11/28 01:37:13;;;;;;;;;;;;;;;15.28;64.06;99515.09;5075261;28;1067;-71
2021/11/28 01:39:39;;;;;;;;;;;;;;;15.29;64.71;99518.59;5075215;28;1047;-63
2021/11/28 01:42:06;;;;;;;;;;;;;;;15.29;65.28;99518.59;5075419;28;1037;-63
2021/11/28 01:44:32;;;;;;;;;;;;;;;15.28;63.92;99514.25;5075320;28;976;-71
2021/11/28 01:47:00;;;;;;;;;;;;;;;15.31;65.30;99522.78;5075374;28;1020;-63
2021/11/28 01:49:27;;;;;;;;;;;;;;;15.26;64.59;99505.53;5075145;28;1980;-71
2021/11/28 01:51:54;;;;;;;;;;;;;;;15.30;64.21;99520.28;5075403;28;1062;-63
2021/11/28 01:54:20;;;;;;;;;;;;;;;15.28;65.18;99516.91;5074917;28;1012;-72
2021/11/28 01:56:47;;;;;;;;;;;;;;;15.30;63.80;99517.63;5074832;28;1020;-71
2021/11/28 01:59:14;;;;;;;;;;;;;;;15.27;63.94;99508.06;5074813;28;1059;-63
2021/11/28 02:01:41;;;;;;;;;;;;;;;15.27;63.58;99494.75;5074522;28;1325;-72
2021/11/28 02:04:14;;;;;;;;;;;;;;;15.26;63.71;99494.88;5074815;28;1016;-63
2021/11/28 02:06:41;;;;;;;;;;;;;;;15.25;65.03;99487.91;5074768;28;1064;-63
2021/11/28 02:09:07;;;;;;;;;;;;;;;15.26;63.60;99489.56;5074940;28;1968;-71
2021/11/28 02:11:34;;;;;;;;;;;;;;;15.25;63.72;99482.56;5075030;28;1003;-63
2021/11/28 02:14:00;;;;;;;;;;;;;;;15.25;65.22;99496.72;5074667;28;1024;-63
2021/11/28 02:16:27;;;;;;;;;;;;;;;15.23;63.96;99496.03;5074673;28;1059;-63
2021/11/28 02:18:53;;;;;;;;;;;;;;;15.25;64.41;99495.88;5075172;28;1097;-71
2021/11/28 02:21:21;;;;;;;;;;;;;;;15.25;64.24;99494.06;5074618;28;1008;-72
2021/11/28 02:23:48;;;;;;;;;;;;;;;15.24;65.11;99488.88;5074610;28;1081;-63
2021/11/28 02:26:15;;;;;;;;;;;;;;;15.24;64.64;99491.53;5073831;28;1043;-71
2021/11/28 02:28:43;;;;;;;;;;;;;;;15.24;64.38;99480.88;5074489;28;1905;-63
2021/11/28 02:31:10;;;;;;;;;;;;;;;15.25;65.19;99487.91;5074751;28;964;-63
2021/11/28 02:33:37;;;;;;;;;;;;;;;15.23;63.49;99481.88;5074839;28;1043;-63
2021/11/28 02:36:03;;;;;;;;;;;;;;;15.21;64.59;99475.84;5074476;28;1059;-72
2021/11/28 02:38:31;;;;;;;;;;;;;;;15.22;64.04;99474.84;5074527;28;1149;-63
2021/11/28 02:40:58;;;;;;;;;;;;;;;15.22;63.68;99478.38;5074450;28;1060;-63
2021/11/28 02:43:25;;;;;;;;;;;;;;;15.22;63.89;99477.50;5074402;28;1004;-71
2021/11/28 02:45:51;;;;;;;;;;;;;;;15.21;64.68;99466.03;5074593;28;1051;-63
2021/11/28 02:48:18;;;;;;;;;;;;;;;15.20;64.40;99479.47;5074519;28;1973;-63
2021/11/28 02:50:45;;;;;;;;;;;;;;;15.22;63.81;99472.19;5074666;28;956;-71
2021/11/28 02:53:12;;;;;;;;;;;;;;;15.21;64.64;99470.53;5074341;28;1035;-71
2021/11/28 02:55:43;;;;;;;;;;;;;;;15.20;63.96;99461.69;5074175;28;1016;-63
2021/11/28 02:58:10;;;;;;;;;;;;;;;15.18;64.88;99470.78;5074246;28;1091;-71
2021/11/28 03:00:38;;;;;;;;;;;;;;;15.19;65.41;99477.81;5072110;28;1498;-63
2021/11/28 03:03:04;;;;;;;;;;;;;;;15.19;64.61;99475.16;5053043;28;1412;-71
2021/11/28 03:05:31;;;;;;;;;;;;;;;15.20;63.76;99467.03;5053767;28;1061;-72
2021/11/28 03:07:57;;;;;;;;;;;;;;;15.20;63.81;99463.50;5053693;28;1909;-63
2021/11/28 03:10:31;;;;;;;;;;;;;;;15.17;65.39;99453.97;5053572;28;1094;-72
2021/11/28 03:12:59;;;;;;;;;;;;;;;15.18;64.08;99453.00;5053574;28;1071;-71
2021/11/28 03:15:26;;;;;;;;;;;;;;;15.16;64.85;99447.00;5053415;28;999;-72
2021/11/28 03:17:53;;;;;;;;;;;;;;;15.17;63.89;99438.00;5053376;28;1035;-63
2021/11/28 03:20:19;;;;;;;;;;;;;;;15.20;63.78;99447.53;5053724;28;1031;-63
2021/11/28 03:22:47;;;;;;;;;;;;;;;15.17;63.84;99447.81;5053605;28;1230;-71
2021/11/28 03:25:14;;;;;;;;;;;;;;;15.17;63.72;99442.50;5052993;28;989;-63
2021/11/28 03:27:40;;;;;;;;;;;;;;;15.20;64.18;99443.06;5053815;28;996;-72
2021/11/28 03:30:08;;;;;;;;;;;;;;;15.17;63.76;99432.69;5053711;28;1906;-63
2021/11/28 03:32:35;;;;;;;;;;;;;;;15.15;64.67;99431.16;5053351;28;1086;-63
2021/11/28 03:35:01;;;;;;;;;;;;;;;15.16;63.66;99431.00;5053722;28;952;-63
2021/11/28 03:37:30;;;;;;;;;;;;;;;15.16;63.89;99431.00;5055395;28;992;-71
2021/11/28 03:39:56;;;;;;;;;;;;;;;15.16;63.80;99431.00;5057206;28;979;-63
2021/11/28 03:42:23;;;;;;;;;;;;;;;15.16;64.18;99438.13;5056777;28;1079;-64
2021/11/28 03:44:49;;;;;;;;;;;;;;;15.15;65.19;99444.47;5056880;28;1167;-63
2021/11/28 03:47:17;;;;;;;;;;;;;;;15.14;63.51;99426.78;5056709;28;1091;-64
2021/11/28 03:49:44;;;;;;;;;;;;;;;15.16;63.43;99430.16;5056754;28;1973;-71
2021/11/28 03:52:10;;;;;;;;;;;;;;;15.14;64.40;99416.16;5056388;28;1020;-70
2021/11/28 03:54:37;;;;;;;;;;;;;;;15.13;63.70;99427.78;5056821;28;1068;-71
2021/11/28 03:57:04;;;;;;;;;;;;;;;15.16;63.90;99432.81;5057431;28;973;-71
2021/11/28 03:59:31;;;;;;;;;;;;;;;15.14;63.79;99442.78;5057000;28;1146;-63
2021/11/28 04:01:58;;;;;;;;;;;;;;;15.14;64.35;99466.72;5056720;28;1348;-62
2021/11/28 04:04:25;;;;;;;;;;;;;;;15.14;63.90;99434.78;5056896;28;1087;-71
2021/11/28 04:06:52;;;;;;;;;;;;;;;15.14;63.46;99448.09;5057263;28;972;-63
2021/11/28 04:09:18;;;;;;;;;;;;;;;15.11;63.59;99442.06;5057139;28;1975;-71
2021/11/28 04:11:45;;;;;;;;;;;;;;;15.13;63.54;99444.59;5057161;28;1233;-70
2021/11/28 04:14:11;;;;;;;;;;;;;;;15.14;65.11;99459.59;5057107;28;1044;-62
2021/11/28 04:16:38;;;;;;;;;;;;;;;15.10;64.19;99456.38;5057076;28;1071;-72
2021/11/28 04:19:04;;;;;;;;;;;;;;;15.11;63.92;99463.38;5056797;28;1126;-63
2021/11/28 04:21:32;;;;;;;;;;;;;;;15.09;65.03;99468.00;5056665;28;1052;-71
2021/11/28 04:23:58;;;;;;;;;;;;;;;15.10;64.46;99464.38;5056887;28;1048;-63
2021/11/28 04:26:25;;;;;;;;;;;;;;;15.11;63.40;99458.03;5056811;28;999;-71
2021/11/28 04:28:51;;;;;;;;;;;;;;;15.10;63.56;99460.88;5056734;28;1905;-63
2021/11/28 04:31:18;;;;;;;;;;;;;;;15.09;63.92;99451.19;5056836;28;1031;-63
2021/11/28 04:33:44;;;;;;;;;;;;;;;15.09;63.34;99462.69;5056188;28;1007;-72
2021/11/28 04:36:11;;;;;;;;;;;;;;;15.09;63.87;99461.84;5056145;28;1062;-72
2021/11/28 04:38:38;;;;;;;;;;;;;;;15.07;64.09;99464.63;5055774;28;1118;-72
2021/11/28 04:41:05;;;;;;;;;;;;;;;15.08;63.97;99479.66;5056228;28;1030;-71
2021/11/28 04:43:31;;;;;;;;;;;;;;;15.07;63.58;99469.97;5055744;28;1072;-63
2021/11/28 04:45:58;;;;;;;;;;;;;;;15.07;64.01;99475.28;5056046;28;985;-71
2021/11/28 04:48:24;;;;;;;;;;;;;;;15.10;63.71;99491.00;5055386;28;1031;-63
2021/11/28 04:50:51;;;;;;;;;;;;;;;15.08;64.94;99505.41;5055336;28;1906;-72
2021/11/28 04:53:17;;;;;;;;;;;;;;;15.07;63.80;99490.44;5055653;28;1000;-63
2021/11/28 04:55:45;;;;;;;;;;;;;;;15.10;64.48;99487.50;5055638;28;1007;-63
2021/11/28 04:58:12;;;;;;;;;;;;;;;15.05;63.58;99481.75;5055929;28;991;-62
2021/11/28 05:00:38;;;;;;;;;;;;;;;15.07;64.32;99511.72;5055811;28;977;-63
2021/11/28 05:03:04;;;;;;;;;;;;;;;15.09;64.81;99504.44;5055148;28;1424;-71
2021/11/28 05:05:32;;;;;;;;;;;;;;;15.07;63.96;99490.44;5055513;28;1095;-64
2021/11/28 05:07:58;;;;;;;;;;;;;;;15.07;64.36;99491.25;5055959;28;988;-63
2021/11/28 05:10:25;;;;;;;;;;;;;;;15.06;63.52;99494.06;5054834;28;1910;-63
2021/11/28 05:12:52;;;;;;;;;;;;;;;15.06;65.09;99478.94;5055547;28;985;-63
2021/11/28 05:15:20;;;;;;;;;;;;;;;15.05;64.11;99487.91;5055603;28;1064;-62
2021/11/28 05:17:47;;;;;;;;;;;;;;;15.04;63.76;99475.59;5055060;28;1100;-63
2021/11/28 05:20:14;;;;;;;;;;;;;;;15.05;64.14;99511.88;5055191;28;1094;-71
2021/11/28 05:22:41;;;;;;;;;;;;;;;15.04;64.97;99496.88;5054962;28;1027;-63
2021/11/28 05:25:08;;;;;;;;;;;;;;;15.03;63.38;99489.88;5055196;28;1043;-63
2021/11/28 05:27:35;;;;;;;;;;;;;;;15.03;64.29;99486.38;5055070;28;1076;-63
2021/11/28 05:30:04;;;;;;;;;;;;;;;15.03;63.77;99497.84;5054520;28;1997;-63
2021/11/28 05:32:30;;;;;;;;;;;;;;;15.04;63.73;99507.53;5055045;28;1037;-71
2021/11/28 05:34:57;;;;;;;;;;;;;;;15.02;63.57;99508.63;5055372;28;1060;-63
2021/11/28 05:37:23;;;;;;;;;;;;;;;15.03;63.79;99508.50;5054300;28;1035;-72
2021/11/28 05:39:50;;;;;;;;;;;;;;;15.02;63.98;99512.16;5054757;28;1094;-71
2021/11/28 05:42:16;;;;;;;;;;;;;;;15.01;63.77;99518.44;5054887;28;1023;-71
2021/11/28 05:44:43;;;;;;;;;;;;;;;15.02;64.92;99535.25;5054675;28;1015;-71
2021/11/28 05:47:11;;;;;;;;;;;;;;;15.00;63.77;99538.09;5054951;28;926;-71
2021/11/28 05:49:37;;;;;;;;;;;;;;;15.00;64.93;99538.09;5054308;28;1910;-71
2021/11/28 05:52:04;;;;;;;;;;;;;;;15.05;64.08;99562.44;5054543;28;1028;-69
2021/11/28 05:54:30;;;;;;;;;;;;;;;15.04;64.93;99566.09;5054666;28;1048;-63
2021/11/28 05:56:57;;;;;;;;;;;;;;;15.01;64.41;99562.88;5054464;28;1118;-63
2021/11/28 05:59:23;;;;;;;;;;;;;;;14.99;64.90;99557.69;5054440;28;1051;-63
2021/11/28 06:01:50;;;;;;;;;;;;;;;15.02;65.13;99569.88;5053654;28;1435;-73
2021/11/28 06:04:18;;;;;;;;;;;;;;;14.99;64.88;99573.66;5054156;28;1018;-63
2021/11/28 06:06:44;;;;;;;;;;;;;;;15.02;64.95;99568.06;5053975;28;968;-63
2021/11/28 06:09:11;;;;;;;;;;;;;;;14.99;63.67;99568.34;5054387;28;1906;-63
2021/11/28 06:11:37;;;;;;;;;;;;;;;15.00;63.68;99571.84;5053929;28;1082;-72
2021/11/28 06:14:04;;;;;;;;;;;;;;;15.02;63.41;99576.06;5054030;28;1044;-63
2021/11/28 06:16:30;;;;;;;;;;;;;;;15.01;63.40;99570.88;5054466;28;1053;-63
2021/11/28 06:18:56;;;;;;;;;;;;;;;15.00;63.52;99564.72;5054255;28;985;-63
2021/11/28 06:21:24;;;;;;;;;;;;;;;15.01;63.47;99561.06;5054103;28;1006;-72
2021/11/28 06:23:51;;;;;;;;;;;;;;;15.01;64.75;99563.72;5053832;28;1078;-71
2021/11/28 06:26:17;;;;;;;;;;;;;;;14.99;63.42;99557.69;5053922;28;1152;-71
2021/11/28 06:28:44;;;;;;;;;;;;;;;14.99;63.41;99555.03;5053515;28;1048;-72
2021/11/28 06:31:10;;;;;;;;;;;;;;;15.02;64.06;99557.41;5054458;28;1910;-71
2021/11/28 06:33:37;;;;;;;;;;;;;;;15.01;64.96;99547.75;5054824;28;969;-63
2021/11/28 06:36:03;;;;;;;;;;;;;;;15.00;63.78;99545.22;5054785;28;1002;-63
2021/11/28 06:38:31;;;;;;;;;;;;;;;15.01;63.51;99554.88;5054902;28;982;-70
2021/11/28 06:40:57;;;;;;;;;;;;;;;15.02;64.31;99552.09;5054334;28;1067;-72
2021/11/28 06:43:24;;;;;;;;;;;;;;;15.02;63.86;99546.78;5054902;28;937;-72
2021/11/28 06:45:51;;;;;;;;;;;;;;;15.01;64.03;99545.06;5054332;28;968;-71
2021/11/28 06:48:17;;;;;;;;;;;;;;;15.01;64.72;99550.41;5054331;28;1032;-63
2021/11/28 06:50:44;;;;;;;;;;;;;;;15.02;63.70;99565.41;5054307;28;1905;-70
2021/11/28 06:53:10;;;;;;;;;;;;;;;15.02;63.88;99561.88;5054500;28;1058;-63
2021/11/28 06:55:38;;;;;;;;;;;;;;;15.01;63.37;99569.03;5054587;28;1015;-63
2021/11/28 06:58:04;;;;;;;;;;;;;;;15.02;64.06;99572.53;5054212;28;1039;-70
2021/11/28 07:00:31;;;;;;;;;;;;;;;15.03;64.55;99596.34;5054183;28;1164;-71
2021/11/28 07:02:57;;;;;;;;;;;;;;;14.99;63.40;99594.97;5054231;28;1440;-63
2021/11/28 07:05:24;;;;;;;;;;;;;;;14.98;63.98;99601.28;5054357;28;1072;-63
2021/11/28 07:07:50;;;;;;;;;;;;;;;15.00;63.52;99601.97;5054391;28;1043;-63
2021/11/28 07:10:17;;;;;;;;;;;;;;;15.02;63.78;99610.66;5054040;28;1902;-71
2021/11/28 07:12:45;;;;;;;;;;;;;;;15.00;64.38;99625.94;5056568;28;1032;-71
2021/11/28 07:15:12;;;;;;;;;;;;;;;15.00;64.30;99617.94;5058247;28;980;-64
2021/11/28 07:17:38;;;;;;;;;;;;;;;14.99;64.40;99618.91;5058149;28;1056;-71
2021/11/28 07:20:05;;;;;;;;;;;;;;;15.00;64.58;99623.28;5058156;28;1160;-63
2021/11/28 07:22:33;;;;;;;;;;;;;;;15.01;63.42;99622.28;5058343;28;1048;-71
2021/11/28 07:25:00;;;;;;;;;;;;;;;15.01;63.57;99634.75;5057693;28;910;-72
2021/11/28 07:27:27;;;;;;;;;;;;;;;15.02;63.93;99631.97;5058007;28;1226;-63
2021/11/28 07:29:56;;;;;;;;;;;;;;;14.98;63.94;99622.56;5057826;28;1979;-72
2021/11/28 07:32:23;;;;;;;;;;;;;;;15.00;65.18;99620.63;5057606;28;972;-64
2021/11/28 07:34:49;;;;;;;;;;;;;;;15.05;63.59;99626.34;5057848;28;1067;-69
2021/11/28 07:37:16;;;;;;;;;;;;;;;15.02;64.16;99616.00;5057784;28;1049;-63
2021/11/28 07:39:42;;;;;;;;;;;;;;;15.03;64.64;99609.66;5057790;28;978;-70
2021/11/28 07:42:09;;;;;;;;;;;;;;;15.03;63.94;99606.19;5057824;28;982;-71
2021/11/28 07:44:35;;;;;;;;;;;;;;;15.10;64.86;99621.47;5057404;28;1091;-71
2021/11/28 07:47:03;;;;;;;;;;;;;;;15.11;64.43;99635.63;5057663;28;1047;-63
2021/11/28 07:49:30;;;;;;;;;;;;;;;15.07;65.10;99635.03;5057475;28;1906;-71
2021/11/28 07:51:56;;;;;;;;;;;;;;;15.11;63.93;99644.44;5057275;28;1064;-63
2021/11/28 07:54:23;;;;;;;;;;;;;;;15.14;64.36;99635.34;5057489;28;1068;-71
2021/11/28 07:56:49;;;;;;;;;;;;;;;15.09;63.39;99627.75;5057470;28;1068;-71
2021/11/28 07:59:16;;;;;;;;;;;;;;;15.10;63.76;99639.28;5057202;28;1114;-69
2021/11/28 08:01:42;;;;;;;;;;;;;;;15.09;64.48;99640.22;5057066;28;1332;-63
2021/11/28 08:04:10;;;;;;;;;;;;;;;15.13;63.35;99646.13;5057214;28;1074;-72
2021/11/28 08:06:36;;;;;;;;;;;;;;;15.11;64.86;99641.78;5057201;28;1014;-63
2021/11/28 08:09:03;;;;;;;;;;;;;;;15.13;63.40;99652.28;5057275;28;1059;-71
2021/11/28 08:11:30;;;;;;;;;;;;;;;15.14;63.44;99650.47;5056783;28;1906;-71
2021/11/28 08:13:56;;;;;;;;;;;;;;;15.16;63.28;99662.69;5057189;28;952;-63
2021/11/28 08:16:22;;;;;;;;;;;;;;;15.16;63.49;99651.16;5057189;28;1099;-71
2021/11/28 08:18:49;;;;;;;;;;;;;;;15.16;64.41;99652.03;5056752;28;1118;-62
2021/11/28 08:21:17;;;;;;;;;;;;;;;15.16;64.87;99646.72;5057030;28;1043;-71
2021/11/28 08:23:43;;;;;;;;;;;;;;;15.22;63.61;99648.81;5055579;28;1063;-72
2021/11/28 08:26:10;;;;;;;;;;;;;;;15.22;63.27;99642.63;5056605;28;1016;-71
2021/11/28 08:28:36;;;;;;;;;;;;;;;15.23;63.90;99633.66;5056889;28;1043;-63
2021/11/28 08:31:03;;;;;;;;;;;;;;;15.25;63.40;99632.53;5056740;28;1906;-63
2021/11/28 08:33:29;;;;;;;;;;;;;;;15.22;63.76;99624.84;5056420;28;1055;-72
2021/11/28 08:35:56;;;;;;;;;;;;;;;15.24;63.66;99624.69;5056470;28;1079;-63
2021/11/28 08:38:24;;;;;;;;;;;;;;;15.24;63.51;99640.66;5056683;28;1080;-71
2021/11/28 08:40:50;;;;;;;;;;;;;;;15.26;63.32;99628.91;5056292;28;1127;-63
2021/11/28 08:43:17;;;;;;;;;;;;;;;15.26;63.29;99617.41;5056624;28;965;-63
2021/11/28 08:45:43;;;;;;;;;;;;;;;15.25;65.13;99621.06;5056564;28;999;-63
2021/11/28 08:48:10;;;;;;;;;;;;;;;15.26;63.41;99612.94;5056393;28;1087;-63
2021/11/28 08:50:36;;;;;;;;;;;;;;;15.29;64.72;99625.13;5056095;28;1949;-71
2021/11/28 08:53:03;;;;;;;;;;;;;;;15.32;63.74;99606.22;5056268;28;1252;-63
2021/11/28 08:55:33;;;;;;;;;;;;;;;15.27;64.19;99619.94;5056369;28;999;-71
2021/11/28 08:57:59;;;;;;;;;;;;;;;15.27;64.93;99597.78;5056076;28;1032;-71
2021/11/28 09:00:26;;;;;;;;;;;;;;;15.28;65.20;99576.34;5055943;28;1086;-63
2021/11/28 09:02:53;;;;;;;;;;;;;;;15.31;64.05;99583.22;5055823;28;1361;-63
2021/11/28 09:05:20;;;;;;;;;;;;;;;15.34;63.69;99571.41;5056085;28;1067;-63
2021/11/28 09:07:46;;;;;;;;;;;;;;;15.36;65.21;99570.31;5055845;28;1063;-71
2021/11/28 09:10:14;;;;;;;;;;;;;;;15.37;63.67;99576.47;5055668;28;1905;-71
2021/11/28 09:12:42;;;;;;;;;;;;;;;15.35;63.40;99557.13;5055688;28;1020;-63
2021/11/28 09:15:09;;;;;;;;;;;;;;;15.35;65.13;99568.63;5055743;28;1107;-71
2021/11/28 09:17:36;;;;;;;;;;;;;;;15.39;64.73;99570.03;5055885;28;960;-63
2021/11/28 09:20:05;;;;;;;;;;;;;;;15.38;64.27;99573.69;5055915;28;1057;-71
2021/11/28 09:24:25;;;;;;;;;;;;;;;15.39;64.18;99578.00;5055527;28;1060;-71
2021/11/28 09:25:22;;;;;;;;;;;;;;;15.41;64.72;99568.06;5055395;28;864;-71
2021/11/28 09:27:51;;;;;;;;;;;;;;;15.44;64.56;99591.75;5055698;28;1028;-63
2021/11/28 09:30:19;;;;;;;;;;;;;;;15.39;63.97;99609.16;5055552;28;1986;-63
2021/11/28 09:32:45;;;;;;;;;;;;;;;15.43;64.71;99616.72;5055354;28;1043;-63
2021/11/28 09:35:12;;;;;;;;;;;;;;;15.40;64.88;99619.66;5055681;28;1084;-63
2021/11/28 09:37:38;;;;;;;;;;;;;;;15.42;65.09;99631.03;5055193;28;1301;-70
2021/11/28 09:40:06;;;;;;;;;;;;;;;15.45;64.14;99611.25;5055232;28;1013;-71
2021/11/28 09:42:36;;;;;;;;;;;;;;;15.44;64.34;99613.06;5055328;28;996;-71
2021/11/28 09:45:04;;;;;;;;;;;;;;;15.41;64.18;99601.84;5055449;28;1234;-63
2021/11/28 09:47:32;;;;;;;;;;;;;;;15.49;64.79;99602.00;5055100;28;1079;-63
2021/11/28 09:49:59;;;;;;;;;;;;;;;15.52;64.43;99585.72;5055320;28;1061;-71
2021/11/28 09:52:28;;;;;;;;;;;;;;;15.59;64.04;99608.16;5055507;28;1914;-71
2021/11/28 09:54:56;;;;;;;;;;;;;;;15.62;63.86;99604.38;5054938;28;1035;-70
2021/11/28 09:57:23;;;;;;;;;;;;;;;15.55;63.93;99605.91;5055255;28;1065;-63
2021/11/28 09:59:50;;;;;;;;;;;;;;;15.57;64.40;99596.78;5055130;28;1033;-71
2021/11/28 10:02:20;;;;;;;;;;;;;;;15.48;65.04;99584.34;5054784;28;1414;-63
2021/11/28 10:04:46;;;;;;;;;;;;;;;15.44;63.78;99583.78;5055090;28;1036;-63
2021/11/28 10:07:13;;;;;;;;;;;;;;;15.41;65.32;99581.38;5055018;28;977;-70
2021/11/28 10:09:40;;;;;;;;;;;;;;;15.50;64.77;99577.88;5055023;28;984;-63
2021/11/28 10:12:24;;;;;;;;;;;;;;;15.48;65.10;99563.84;5054602;28;1911;-71
2021/11/28 10:14:51;;;;;;;;;;;;;;;15.55;63.47;99548.13;5054971;28;1068;-63
2021/11/28 10:17:20;;;;;;;;;;;;;;;15.57;64.38;99540.00;5054590;28;1219;-71
2021/11/28 10:19:46;;;;;;;;;;;;;;;15.55;65.01;99528.66;5054819;28;1046;-71
2021/11/28 10:22:13;;;;;;;;;;;;;;;15.63;63.93;99539.44;5054578;28;1031;-71
2021/11/28 10:24:49;;;;;;;;;;;;;;;15.64;64.85;99528.63;5054737;28;798;-71
2021/11/28 10:27:16;;;;;;;;;;;;;;;15.53;65.06;99528.78;5054907;28;1053;-71
2021/11/28 10:29:42;;;;;;;;;;;;;;;15.52;64.97;99524.44;5054808;28;1032;-63
2021/11/28 10:32:10;;;;;;;;;;;;;;;15.45;64.89;99504.69;5054734;28;2040;-63
2021/11/28 10:34:38;;;;;;;;;;;;;;;15.54;65.18;99516.28;5054761;28;1007;-71
2021/11/28 10:37:06;;;;;;;;;;;;;;;15.51;65.14;99510.28;5054729;28;1019;-63
2021/11/28 10:39:37;;;;;;;;;;;;;;;15.48;64.93;99510.56;5054923;28;996;-63
2021/11/28 10:42:04;;;;;;;;;;;;;;;15.56;65.11;99530.31;5054709;28;1605;-71
2021/11/28 10:44:30;;;;;;;;;;;;;;;15.50;64.75;99529.91;5054766;28;1010;-63
2021/11/28 10:46:59;;;;;;;;;;;;;;;15.48;64.28;99541.72;5056036;28;1064;-63
2021/11/28 10:49:25;;;;;;;;;;;;;;;15.46;64.19;99522.38;5058725;28;1034;-71
2021/11/28 10:51:54;;;;;;;;;;;;;;;15.42;63.80;99537.78;5058570;28;1914;-63
2021/11/28 10:54:25;;;;;;;;;;;;;;;15.44;64.25;99535.81;5058570;28;969;-63
2021/11/28 10:57:02;;;;;;;;;;;;;;;15.42;64.56;99547.56;5058576;28;987;-63
2021/11/28 10:59:28;;;;;;;;;;;;;;;15.41;65.48;99546.75;5058531;28;972;-72
2021/11/28 11:01:55;;;;;;;;;;;;;;;15.50;65.21;99553.91;5058213;28;1332;-63
2021/11/28 11:04:22;;;;;;;;;;;;;;;15.45;65.38;99564.13;5058105;28;1043;-71
2021/11/28 11:07:06;;;;;;;;;;;;;;;15.48;64.95;99555.03;5058444;28;981;-64
2021/11/28 11:09:39;;;;;;;;;;;;;;;15.47;65.11;99562.16;5058400;28;1003;-63
2021/11/28 11:12:16;;;;;;;;;;;;;;;15.52;65.33;99554.59;5058420;28;1910;-63
2021/11/28 11:14:43;;;;;;;;;;;;;;;15.52;64.93;99543.09;5057942;28;1291;-71
2021/11/28 11:17:10;;;;;;;;;;;;;;;15.45;65.14;99542.81;5058200;28;995;-71
2021/11/28 11:19:40;;;;;;;;;;;;;;;15.43;65.62;99539.44;5058230;28;1013;-72
2021/11/28 11:22:07;;;;;;;;;;;;;;;15.48;65.09;99547.88;5058156;28;1012;-72
2021/11/28 11:24:36;;;;;;;;;;;;;;;15.44;64.87;99546.47;5057898;28;1048;-71
2021/11/28 11:27:10;;;;;;;;;;;;;;;15.47;64.32;99545.34;5058318;28;1011;-72
2021/11/28 11:29:36;;;;;;;;;;;;;;;15.41;65.62;99536.09;5057946;28;1071;-63
2021/11/28 11:32:08;;;;;;;;;;;;;;;15.43;64.18;99512.81;5057576;28;1981;-71
2021/11/28 11:34:35;;;;;;;;;;;;;;;15.44;65.52;99519.00;5057637;28;1044;-64
2021/11/28 11:37:03;;;;;;;;;;;;;;;15.46;65.69;99539.19;5058174;28;1023;-71
2021/11/28 11:39:30;;;;;;;;;;;;;;;15.48;64.47;99542.53;5057529;28;1048;-63
2021/11/28 11:41:59;;;;;;;;;;;;;;;15.45;64.94;99537.47;5057463;28;1043;-68
2021/11/28 11:44:27;;;;;;;;;;;;;;;15.45;65.62;99534.81;5057762;28;1059;-63
2021/11/28 11:46:54;;;;;;;;;;;;;;;15.46;64.18;99527.69;5057426;28;1008;-71
2021/11/28 11:49:21;;;;;;;;;;;;;;;15.48;64.16;99529.22;5057281;28;1105;-63
2021/11/28 11:51:48;;;;;;;;;;;;;;;15.45;65.65;99526.81;5057555;28;1910;-63
2021/11/28 11:54:19;;;;;;;;;;;;;;;15.49;64.57;99532.72;5057255;28;987;-72
2021/11/28 11:56:47;;;;;;;;;;;;;;;15.48;64.32;99523.88;5057563;28;1006;-63
2021/11/28 11:59:23;;;;;;;;;;;;;;;15.47;64.88;99503.56;5057168;28;1059;-72
2021/11/28 12:01:59;;;;;;;;;;;;;;;15.45;65.83;99507.34;5057002;28;1459;-63
2021/11/28 12:04:35;;;;;;;;;;;;;;;15.46;65.64;99517.88;5057052;28;1059;-63
2021/11/28 12:07:01;;;;;;;;;;;;;;;15.44;64.63;99525.16;5056979;28;1024;-63
2021/11/28 12:09:29;;;;;;;;;;;;;;;15.43;65.90;99511.97;5057300;28;1039;-63
2021/11/28 12:11:57;;;;;;;;;;;;;;;15.47;64.88;99505.38;5057152;28;1905;-63
2021/11/28 12:14:24;;;;;;;;;;;;;;;15.47;64.35;99508.03;5057423;28;1011;-71
2021/11/28 12:16:51;;;;;;;;;;;;;;;15.47;65.37;99500.06;5056804;28;1024;-63
2021/11/28 12:19:32;;;;;;;;;;;;;;;15.47;65.24;99497.38;5057032;28;1048;-63
2021/11/28 12:21:59;;;;;;;;;;;;;;;15.50;65.31;99508.59;5053669;28;1057;-72
2021/11/28 12:24:28;;;;;;;;;;;;;;;15.49;65.96;99519.41;5056969;28;1015;-71
2021/11/28 12:26:57;;;;;;;;;;;;;;;15.49;65.79;99516.72;5056960;28;984;-64
2021/11/28 12:29:27;;;;;;;;;;;;;;;15.47;65.72;99519.53;5056833;28;1032;-63
2021/11/28 12:31:55;;;;;;;;;;;;;;;15.43;65.70;99509.31;5056480;28;1917;-63
2021/11/28 12:34:22;;;;;;;;;;;;;;;15.41;66.07;99504.13;5056800;28;984;-71
2021/11/28 12:36:50;;;;;;;;;;;;;;;15.44;64.91;99513.69;5056728;28;960;-63
2021/11/28 12:39:37;;;;;;;;;;;;;;;15.45;64.72;99518.84;5056722;28;981;-63
2021/11/28 12:42:04;;;;;;;;;;;;;;;15.49;64.60;99517.56;5056581;28;1090;-71
2021/11/28 12:44:34;;;;;;;;;;;;;;;15.49;64.34;99500.75;5056341;28;921;-71
2021/11/28 12:47:01;;;;;;;;;;;;;;;15.46;64.60;99501.06;5056576;28;1479;-71
2021/11/28 12:49:28;;;;;;;;;;;;;;;15.44;65.94;99503.84;5056603;28;1003;-71
2021/11/28 12:51:55;;;;;;;;;;;;;;;15.47;65.53;99516.88;5056401;28;1906;-70
2021/11/28 12:54:25;;;;;;;;;;;;;;;15.49;65.63;99516.72;5056420;28;1068;-71
2021/11/28 12:57:07;;;;;;;;;;;;;;;15.49;65.69;99511.41;5056354;28;1044;-63
2021/11/28 12:59:35;;;;;;;;;;;;;;;15.46;65.65;99512.53;5039548;28;1200;-63
2021/11/28 13:02:01;;;;;;;;;;;;;;;15.49;65.20;99506.06;5055865;28;1327;-71
2021/11/28 13:04:44;;;;;;;;;;;;;;;15.45;65.53;99500.19;5055835;28;1020;-70